Terminal Aerodrome Forecast
Issued by NWS

Home | Current Version | Previous Version | Text Only | Print | Product List | Glossary On
Versions: 1 2 3 4 5 6 7 8 9 10 11 12 13 14 15 16
649
FTUS42 TJSJ 280543
TAFIST
TAF
TIST 280543Z 2806/2906 09013KT P6SM -SHRA SCT035 BKN060
     FM281400 10014G23KT P6SM VCSH SCT025 SCT030 SCT050
     FM282300 08012KT P6SM VCSH FEW025 SCT040=

USA.gov is the U.S. government's official web portal to all federal, state and local government web resources and services.